sensor_id;sensor_type;location;lat;lon;timestamp;pressure;altitude;pressure_sealevel;temperature;humidity
36258;BME280;22294;52.044;4.582;2023-04-07T00:01:03;77028.69;;;-144.37;100.00
36258;BME280;22294;52.044;4.582;2023-04-07T00:03:29;77028.69;;;-144.37;100.00
36258;BME280;22294;52.044;4.582;2023-04-07T00:05:57;77026.66;;;-144.37;100.00
36258;BME280;22294;52.044;4.582;2023-04-07T00:08:22;77020.50;;;-144.37;100.00
36258;BME280;22294;52.044;4.582;2023-04-07T00:10:49;77016.44;;;-144.37;100.00
36258;BME280;22294;52.044;4.582;2023-04-07T00:13:14;77018.47;;;-144.37;100.00
36258;BME280;22294;52.044;4.582;2023-04-07T00:15:41;77020.50;;;-144.37;100.00
36258;BME280;22294;52.044;4.582;2023-04-07T00:18:06;77020.50;;;-144.37;100.00
36258;BME280;22294;52.044;4.582;2023-04-07T00:20:31;77022.56;;;-144.37;100.00
36258;BME280;22294;52.044;4.582;2023-04-07T00:22:59;77028.69;;;-144.37;100.00
36258;BME280;22294;52.044;4.582;2023-04-07T00:25:25;77040.97;;;-144.37;100.00
36258;BME280;22294;52.044;4.582;2023-04-07T00:27:50;77049.16;;;-144.37;100.00
36258;BME280;22294;52.044;4.582;2023-04-07T00:30:15;77043.03;;;-144.37;100.00
36258;BME280;22294;52.044;4.582;2023-04-07T00:32:41;77043.03;;;-144.37;100.00
36258;BME280;22294;52.044;4.582;2023-04-07T00:35:07;77047.09;;;-144.37;100.00
36258;BME280;22294;52.044;4.582;2023-04-07T00:37:32;77049.16;;;-144.37;100.00
36258;BME280;22294;52.044;4.582;2023-04-07T00:39:57;77051.19;;;-144.37;100.00
36258;BME280;22294;52.044;4.582;2023-04-07T00:42:24;77047.09;;;-144.37;100.00
36258;BME280;22294;52.044;4.582;2023-04-07T00:44:50;77043.03;;;-144.37;100.00
36258;BME280;22294;52.044;4.582;2023-04-07T00:47:15;77047.09;;;-144.37;100.00
36258;BME280;22294;52.044;4.582;2023-04-07T00:49:40;77055.28;;;-144.37;100.00
36258;BME280;22294;52.044;4.582;2023-04-07T00:52:07;77051.19;;;-144.37;100.00
36258;BME280;22294;52.044;4.582;2023-04-07T00:54:35;77051.19;;;-144.37;100.00
36258;BME280;22294;52.044;4.582;2023-04-07T00:57:00;77061.44;;;-144.37;100.00
36258;BME280;22294;52.044;4.582;2023-04-07T00:59:25;77069.63;;;-144.37;100.00
36258;BME280;22294;52.044;4.582;2023-04-07T01:02:04;77073.69;;;-144.37;100.00
36258;BME280;22294;52.044;4.582;2023-04-07T01:04:42;77081.88;;;-144.37;100.00
36258;BME280;22294;52.044;4.582;2023-04-07T01:07:22;77073.69;;;-144.37;100.00
36258;BME280;22294;52.044;4.582;2023-04-07T01:09:56;77079.84;;;-144.37;100.00
36258;BME280;22294;52.044;4.582;2023-04-07T01:15:08;77079.84;;;-144.37;100.00
36258;BME280;22294;52.044;4.582;2023-04-07T01:17:34;77090.06;;;-144.37;100.00
36258;BME280;22294;52.044;4.582;2023-04-07T01:20:02;77090.06;;;-144.37;100.00
36258;BME280;22294;52.044;4.582;2023-04-07T01:22:32;77088.03;;;-144.37;100.00
36258;BME280;22294;52.044;4.582;2023-04-07T01:30:03;77100.28;;;-144.37;100.00
36258;BME280;22294;52.044;4.582;2023-04-07T01:32:30;77104.38;;;-144.37;100.00
36258;BME280;22294;52.044;4.582;2023-04-07T01:34:58;77106.44;;;-144.37;100.00
36258;BME280;22294;52.044;4.582;2023-04-07T01:37:24;77114.63;;;-144.37;100.00
36258;BME280;22294;52.044;4.582;2023-04-07T01:39:51;77114.63;;;-144.37;100.00
36258;BME280;22294;52.044;4.582;2023-04-07T01:42:18;77110.53;;;-144.37;100.00
36258;BME280;22294;52.044;4.582;2023-04-07T01:44:44;77104.38;;;-144.37;100.00
36258;BME280;22294;52.044;4.582;2023-04-07T01:47:09;77100.28;;;-144.37;100.00
36258;BME280;22294;52.044;4.582;2023-04-07T01:49:35;77104.38;;;-144.37;100.00
36258;BME280;22294;52.044;4.582;2023-04-07T01:52:01;77104.38;;;-144.37;100.00
36258;BME280;22294;52.044;4.582;2023-04-07T01:54:26;77100.28;;;-144.37;100.00
36258;BME280;22294;52.044;4.582;2023-04-07T01:56:52;77090.06;;;-144.37;100.00
36258;BME280;22294;52.044;4.582;2023-04-07T01:59:17;77098.25;;;-144.37;100.00
36258;BME280;22294;52.044;4.582;2023-04-07T02:01:43;77104.38;;;-144.37;100.00
36258;BME280;22294;52.044;4.582;2023-04-07T02:04:15;77106.44;;;-144.37;100.00
36258;BME280;22294;52.044;4.582;2023-04-07T02:06:55;77094.16;;;-144.37;100.00
36258;BME280;22294;52.044;4.582;2023-04-07T02:09:24;77098.25;;;-144.37;100.00
36258;BME280;22294;52.044;4.582;2023-04-07T02:11:52;77090.06;;;-144.37;100.00
36258;BME280;22294;52.044;4.582;2023-04-07T02:14:21;77090.06;;;-144.37;100.00
36258;BME280;22294;52.044;4.582;2023-04-07T02:16:48;77083.94;;;-144.37;100.00
36258;BME280;22294;52.044;4.582;2023-04-07T02:19:15;77079.84;;;-144.37;100.00
36258;BME280;22294;52.044;4.582;2023-04-07T02:21:40;77073.69;;;-144.37;100.00
36258;BME280;22294;52.044;4.582;2023-04-07T02:24:06;77085.97;;;-144.37;100.00
36258;BME280;22294;52.044;4.582;2023-04-07T02:26:32;77079.84;;;-144.37;100.00
36258;BME280;22294;52.044;4.582;2023-04-07T02:28:58;77083.94;;;-144.37;100.00
36258;BME280;22294;52.044;4.582;2023-04-07T02:31:23;77083.94;;;-144.37;100.00
36258;BME280;22294;52.044;4.582;2023-04-07T02:33:49;77092.13;;;-144.37;100.00
36258;BME280;22294;52.044;4.582;2023-04-07T02:36:14;77098.25;;;-144.37;100.00
36258;BME280;22294;52.044;4.582;2023-04-07T02:38:41;77096.22;;;-144.37;100.00
36258;BME280;22294;52.044;4.582;2023-04-07T02:41:06;77102.34;;;-144.37;100.00
36258;BME280;22294;52.044;4.582;2023-04-07T02:43:32;77104.38;;;-144.37;100.00
36258;BME280;22294;52.044;4.582;2023-04-07T02:45:58;77096.22;;;-144.37;100.00
36258;BME280;22294;52.044;4.582;2023-04-07T02:48:23;77088.03;;;-144.37;100.00
36258;BME280;22294;52.044;4.582;2023-04-07T02:50:49;77075.75;;;-144.37;100.00
36258;BME280;22294;52.044;4.582;2023-04-07T02:53:14;77077.78;;;-144.37;100.00
36258;BME280;22294;52.044;4.582;2023-04-07T02:55:41;77073.69;;;-144.37;100.00
36258;BME280;22294;52.044;4.582;2023-04-07T02:58:06;77073.69;;;-144.37;100.00
36258;BME280;22294;52.044;4.582;2023-04-07T03:00:32;77075.75;;;-144.37;100.00
36258;BME280;22294;52.044;4.582;2023-04-07T03:02:57;77075.75;;;-144.37;100.00
36258;BME280;22294;52.044;4.582;2023-04-07T03:05:23;77083.94;;;-144.37;100.00
36258;BME280;22294;52.044;4.582;2023-04-07T03:07:48;77079.84;;;-144.37;100.00
36258;BME280;22294;52.044;4.582;2023-04-07T03:10:13;77075.75;;;-144.37;100.00
36258;BME280;22294;52.044;4.582;2023-04-07T03:12:38;77077.78;;;-144.37;100.00
36258;BME280;22294;52.044;4.582;2023-04-07T03:15:03;77079.84;;;-144.37;100.00
36258;BME280;22294;52.044;4.582;2023-04-07T03:17:29;77081.88;;;-144.37;100.00
36258;BME280;22294;52.044;4.582;2023-04-07T03:19:55;77081.88;;;-144.37;100.00
36258;BME280;22294;52.044;4.582;2023-04-07T03:22:20;77088.03;;;-144.37;100.00
36258;BME280;22294;52.044;4.582;2023-04-07T03:24:47;77085.97;;;-144.37;100.00
36258;BME280;22294;52.044;4.582;2023-04-07T03:27:12;77081.88;;;-144.37;100.00
36258;BME280;22294;52.044;4.582;2023-04-07T03:29:37;77083.94;;;-144.37;100.00
36258;BME280;22294;52.044;4.582;2023-04-07T03:32:02;77090.06;;;-144.37;100.00
36258;BME280;22294;52.044;4.582;2023-04-07T03:34:28;77083.94;;;-144.37;100.00
36258;BME280;22294;52.044;4.582;2023-04-07T03:36:53;77083.94;;;-144.37;100.00
36258;BME280;22294;52.044;4.582;2023-04-07T03:39:18;77073.69;;;-144.37;100.00
36258;BME280;22294;52.044;4.582;2023-04-07T03:41:43;77073.69;;;-144.37;100.00
36258;BME280;22294;52.044;4.582;2023-04-07T03:44:08;77079.84;;;-144.37;100.00
36258;BME280;22294;52.044;4.582;2023-04-07T03:46:33;77085.97;;;-144.37;100.00
36258;BME280;22294;52.044;4.582;2023-04-07T03:48:59;77092.13;;;-144.37;100.00
36258;BME280;22294;52.044;4.582;2023-04-07T03:51:24;77085.97;;;-144.37;100.00
36258;BME280;22294;52.044;4.582;2023-04-07T03:53:50;77081.88;;;-144.37;100.00
36258;BME280;22294;52.044;4.582;2023-04-07T03:56:16;77077.78;;;-144.37;100.00
36258;BME280;22294;52.044;4.582;2023-04-07T03:58:41;77090.06;;;-144.37;100.00
36258;BME280;22294;52.044;4.582;2023-04-07T04:01:08;77085.97;;;-144.37;100.00
36258;BME280;22294;52.044;4.582;2023-04-07T04:03:33;77088.03;;;-144.37;100.00
36258;BME280;22294;52.044;4.582;2023-04-07T04:05:59;77088.03;;;-144.37;100.00
36258;BME280;22294;52.044;4.582;2023-04-07T04:08:24;77085.97;;;-144.37;100.00
36258;BME280;22294;52.044;4.582;2023-04-07T04:10:49;77088.03;;;-144.37;100.00
36258;BME280;22294;52.044;4.582;2023-04-07T04:13:15;77085.97;;;-144.37;100.00
36258;BME280;22294;52.044;4.582;2023-04-07T04:15:40;77081.88;;;-144.37;100.00
36258;BME280;22294;52.044;4.582;2023-04-07T04:18:05;77090.06;;;-144.37;100.00
36258;BME280;22294;52.044;4.582;2023-04-07T04:20:30;77100.28;;;-144.37;100.00
36258;BME280;22294;52.044;4.582;2023-04-07T04:22:56;77100.28;;;-144.37;100.00
36258;BME280;22294;52.044;4.582;2023-04-07T04:25:22;77104.38;;;-144.37;100.00
36258;BME280;22294;52.044;4.582;2023-04-07T04:27:48;77098.25;;;-144.37;100.00
36258;BME280;22294;52.044;4.582;2023-04-07T04:30:13;77098.25;;;-144.37;100.00
36258;BME280;22294;52.044;4.582;2023-04-07T04:32:38;77096.22;;;-144.37;100.00
36258;BME280;22294;52.044;4.582;2023-04-07T04:35:04;77098.25;;;-144.37;100.00
36258;BME280;22294;52.044;4.582;2023-04-07T04:37:30;77106.44;;;-144.37;100.00
36258;BME280;22294;52.044;4.582;2023-04-07T04:39:56;77108.47;;;-144.37;100.00
36258;BME280;22294;52.044;4.582;2023-04-07T04:42:21;77096.22;;;-144.37;100.00
36258;BME280;22294;52.044;4.582;2023-04-07T04:44:46;77092.13;;;-144.37;100.00
36258;BME280;22294;52.044;4.582;2023-04-07T04:47:11;77098.25;;;-144.37;100.00
36258;BME280;22294;52.044;4.582;2023-04-07T04:49:36;77102.34;;;-144.37;100.00
36258;BME280;22294;52.044;4.582;2023-04-07T04:52:02;77100.28;;;-144.37;100.00
36258;BME280;22294;52.044;4.582;2023-04-07T04:54:27;77102.34;;;-144.37;100.00
36258;BME280;22294;52.044;4.582;2023-04-07T04:56:52;77100.28;;;-144.37;100.00
36258;BME280;22294;52.044;4.582;2023-04-07T04:59:17;77106.44;;;-144.37;100.00
36258;BME280;22294;52.044;4.582;2023-04-07T05:01:43;77104.38;;;-144.37;100.00
36258;BME280;22294;52.044;4.582;2023-04-07T05:04:08;77104.38;;;-144.37;100.00
36258;BME280;22294;52.044;4.582;2023-04-07T05:06:34;77102.34;;;-144.37;100.00
36258;BME280;22294;52.044;4.582;2023-04-07T05:08:59;77102.34;;;-144.37;100.00
36258;BME280;22294;52.044;4.582;2023-04-07T05:11:24;77106.44;;;-144.37;100.00
36258;BME280;22294;52.044;4.582;2023-04-07T05:13:49;77098.25;;;-144.37;100.00
36258;BME280;22294;52.044;4.582;2023-04-07T05:16:15;77104.38;;;-144.37;100.00
36258;BME280;22294;52.044;4.582;2023-04-07T05:18:40;77108.47;;;-144.37;100.00
36258;BME280;22294;52.044;4.582;2023-04-07T05:21:05;77110.53;;;-144.37;100.00
36258;BME280;22294;52.044;4.582;2023-04-07T05:23:31;77114.63;;;-144.37;100.00
36258;BME280;22294;52.044;4.582;2023-04-07T05:25:57;77118.72;;;-144.37;100.00
36258;BME280;22294;52.044;4.582;2023-04-07T05:28:22;77110.53;;;-144.37;100.00
36258;BME280;22294;52.044;4.582;2023-04-07T05:30:50;77122.81;;;-144.37;100.00
36258;BME280;22294;52.044;4.582;2023-04-07T05:33:15;77128.94;;;-144.37;100.00
36258;BME280;22294;52.044;4.582;2023-04-07T05:35:42;77130.97;;;-144.37;100.00
36258;BME280;22294;52.044;4.582;2023-04-07T05:38:07;77137.13;;;-144.37;100.00
36258;BME280;22294;52.044;4.582;2023-04-07T05:40:34;77135.06;;;-144.37;100.00
36258;BME280;22294;52.044;4.582;2023-04-07T05:42:59;77128.94;;;-144.37;100.00
36258;BME280;22294;52.044;4.582;2023-04-07T05:45:24;77130.97;;;-144.37;100.00
36258;BME280;22294;52.044;4.582;2023-04-07T05:47:51;77128.94;;;-144.37;100.00
36258;BME280;22294;52.044;4.582;2023-04-07T05:50:16;77114.63;;;-144.37;100.00
36258;BME280;22294;52.044;4.582;2023-04-07T05:52:43;77122.81;;;-144.37;100.00
36258;BME280;22294;52.044;4.582;2023-04-07T05:55:08;77116.66;;;-144.37;100.00
36258;BME280;22294;52.044;4.582;2023-04-07T05:57:33;77122.81;;;-144.37;100.00
36258;BME280;22294;52.044;4.582;2023-04-07T05:59:59;77122.81;;;-144.37;100.00
36258;BME280;22294;52.044;4.582;2023-04-07T06:02:24;77120.75;;;-144.37;100.00
36258;BME280;22294;52.044;4.582;2023-04-07T06:04:50;77120.75;;;-144.37;100.00
36258;BME280;22294;52.044;4.582;2023-04-07T06:07:15;77120.75;;;-144.37;100.00
36258;BME280;22294;52.044;4.582;2023-04-07T06:09:40;77124.84;;;-144.37;100.00
36258;BME280;22294;52.044;4.582;2023-04-07T06:12:06;77122.81;;;-144.37;100.00
36258;BME280;22294;52.044;4.582;2023-04-07T06:14:31;77130.97;;;-144.37;100.00
36258;BME280;22294;52.044;4.582;2023-04-07T06:16:57;77124.84;;;-144.37;100.00
36258;BME280;22294;52.044;4.582;2023-04-07T06:19:22;77116.66;;;-144.37;100.00
36258;BME280;22294;52.044;4.582;2023-04-07T06:21:47;77122.81;;;-144.37;100.00
36258;BME280;22294;52.044;4.582;2023-04-07T06:24:12;77116.66;;;-144.37;100.00
36258;BME280;22294;52.044;4.582;2023-04-07T06:26:38;77114.63;;;-144.37;100.00
36258;BME280;22294;52.044;4.582;2023-04-07T06:29:05;77114.63;;;-144.37;100.00
36258;BME280;22294;52.044;4.582;2023-04-07T06:31:30;77112.56;;;-144.37;100.00
36258;BME280;22294;52.044;4.582;2023-04-07T06:33:55;77112.56;;;-144.37;100.00
36258;BME280;22294;52.044;4.582;2023-04-07T06:36:20;77120.75;;;-144.37;100.00
36258;BME280;22294;52.044;4.582;2023-04-07T06:38:47;77116.66;;;-144.37;100.00
36258;BME280;22294;52.044;4.582;2023-04-07T06:41:12;77112.56;;;-144.37;100.00
36258;BME280;22294;52.044;4.582;2023-04-07T06:43:41;77108.47;;;-144.37;100.00
36258;BME280;22294;52.044;4.582;2023-04-07T06:46:06;77110.53;;;-144.37;100.00
36258;BME280;22294;52.044;4.582;2023-04-07T06:48:31;77114.63;;;-144.37;100.00
36258;BME280;22294;52.044;4.582;2023-04-07T06:50:56;77114.63;;;-144.37;100.00
36258;BME280;22294;52.044;4.582;2023-04-07T06:53:21;77120.75;;;-144.37;100.00
36258;BME280;22294;52.044;4.582;2023-04-07T06:55:47;77135.06;;;-144.37;100.00
36258;BME280;22294;52.044;4.582;2023-04-07T06:58:12;77135.06;;;-144.37;100.00
36258;BME280;22294;52.044;4.582;2023-04-07T07:00:37;77124.84;;;-144.37;100.00
36258;BME280;22294;52.044;4.582;2023-04-07T07:03:03;77118.72;;;-144.37;100.00
36258;BME280;22294;52.044;4.582;2023-04-07T07:05:28;77122.81;;;-144.37;100.00
36258;BME280;22294;52.044;4.582;2023-04-07T07:07:53;77135.06;;;-144.37;100.00
36258;BME280;22294;52.044;4.582;2023-04-07T07:10:18;77133.03;;;-144.37;100.00
36258;BME280;22294;52.044;4.582;2023-04-07T07:12:47;77145.31;;;-144.37;100.00
36258;BME280;22294;52.044;4.582;2023-04-07T07:15:12;77151.44;;;-144.37;100.00
36258;BME280;22294;52.044;4.582;2023-04-07T07:17:37;77153.47;;;-144.37;100.00
36258;BME280;22294;52.044;4.582;2023-04-07T07:20:02;77147.34;;;-144.37;100.00
36258;BME280;22294;52.044;4.582;2023-04-07T07:22:28;77149.41;;;-144.37;100.00
36258;BME280;22294;52.044;4.582;2023-04-07T07:24:53;77159.63;;;-144.37;99.96
36258;BME280;22294;52.044;4.582;2023-04-07T07:27:18;77151.44;;;-144.37;100.00
36258;BME280;22294;52.044;4.582;2023-04-07T07:29:44;77159.63;;;-144.37;100.00
36258;BME280;22294;52.044;4.582;2023-04-07T07:32:09;77151.44;;;-144.37;100.00
36258;BME280;22294;52.044;4.582;2023-04-07T07:34:34;77147.34;;;-144.37;100.00
36258;BME280;22294;52.044;4.582;2023-04-07T07:37:00;77159.63;;;-144.37;100.00
36258;BME280;22294;52.044;4.582;2023-04-07T07:39:25;77173.94;;;-144.37;100.00
36258;BME280;22294;52.044;4.582;2023-04-07T07:41:51;77163.72;;;-144.37;100.00
36258;BME280;22294;52.044;4.582;2023-04-07T07:44:16;77167.81;;;-144.37;100.00
36258;BME280;22294;52.044;4.582;2023-04-07T07:46:44;77167.81;;;-144.37;100.00
36258;BME280;22294;52.044;4.582;2023-04-07T07:49:09;77167.81;;;-144.37;100.00
36258;BME280;22294;52.044;4.582;2023-04-07T07:51:34;77169.84;;;-144.37;100.00
36258;BME280;22294;52.044;4.582;2023-04-07T07:54:00;77180.06;;;-144.37;100.00
36258;BME280;22294;52.044;4.582;2023-04-07T07:56:25;77178.03;;;-144.37;99.91
36258;BME280;22294;52.044;4.582;2023-04-07T07:58:52;77175.97;;;-144.37;99.71
36258;BME280;22294;52.044;4.582;2023-04-07T08:01:17;77171.91;;;-144.37;98.95
36258;BME280;22294;52.044;4.582;2023-04-07T08:03:42;77180.06;;;-144.37;98.66
36258;BME280;22294;52.044;4.582;2023-04-07T08:06:07;77169.84;;;-144.37;98.83
36258;BME280;22294;52.044;4.582;2023-04-07T08:08:33;77180.06;;;-144.37;97.55
36258;BME280;22294;52.044;4.582;2023-04-07T08:10:58;77169.84;;;-144.37;97.58
36258;BME280;22294;52.044;4.582;2023-04-07T08:13:24;77165.75;;;-144.37;97.70
36258;BME280;22294;52.044;4.582;2023-04-07T08:15:49;77159.63;;;-144.37;96.66
36258;BME280;22294;52.044;4.582;2023-04-07T08:18:14;77153.47;;;-144.37;95.38
36258;BME280;22294;52.044;4.582;2023-04-07T08:20:39;77157.56;;;-144.37;94.79
36258;BME280;22294;52.044;4.582;2023-04-07T08:23:05;77153.47;;;-144.37;95.10
36258;BME280;22294;52.044;4.582;2023-04-07T08:25:30;77149.41;;;-144.37;95.72
36258;BME280;22294;52.044;4.582;2023-04-07T08:27:56;77159.63;;;-144.37;95.08
36258;BME280;22294;52.044;4.582;2023-04-07T08:30:21;77151.44;;;-144.37;95.33
36258;BME280;22294;52.044;4.582;2023-04-07T08:32:46;77161.66;;;-144.37;94.94
36258;BME280;22294;52.044;4.582;2023-04-07T08:35:12;77155.53;;;-144.37;94.82
36258;BME280;22294;52.044;4.582;2023-04-07T08:37:37;77147.34;;;-144.37;94.84
36258;BME280;22294;52.044;4.582;2023-04-07T08:40:03;77145.31;;;-144.37;95.09
36258;BME280;22294;52.044;4.582;2023-04-07T08:42:29;77147.34;;;-144.37;95.47
36258;BME280;22294;52.044;4.582;2023-04-07T08:44:58;77153.47;;;-144.37;93.82
36258;BME280;22294;52.044;4.582;2023-04-07T08:47:26;77159.63;;;-144.37;94.56
36258;BME280;22294;52.044;4.582;2023-04-07T08:49:52;77147.34;;;-144.37;96.29
36258;BME280;22294;52.044;4.582;2023-04-07T08:52:18;77155.53;;;-144.37;95.39
36258;BME280;22294;52.044;4.582;2023-04-07T08:54:46;77147.34;;;-144.37;95.73
36258;BME280;22294;52.044;4.582;2023-04-07T08:57:11;77147.34;;;-144.37;95.56
36258;BME280;22294;52.044;4.582;2023-04-07T08:59:37;77147.34;;;-144.37;94.33
36258;BME280;22294;52.044;4.582;2023-04-07T09:02:05;77149.41;;;-144.37;95.17
36258;BME280;22294;52.044;4.582;2023-04-07T09:04:30;77149.41;;;-144.37;95.17
36258;BME280;22294;52.044;4.582;2023-04-07T09:06:56;77143.25;;;-144.37;96.74
36258;BME280;22294;52.044;4.582;2023-04-07T09:09:21;77147.34;;;-144.37;97.40
36258;BME280;22294;52.044;4.582;2023-04-07T09:11:48;77171.91;;;-144.37;95.27
36258;BME280;22294;52.044;4.582;2023-04-07T09:14:13;77182.13;;;-144.37;95.30
36258;BME280;22294;52.044;4.582;2023-04-07T09:16:39;77167.81;;;-144.37;96.41
36258;BME280;22294;52.044;4.582;2023-04-07T09:19:04;77151.44;;;-144.37;96.75
36258;BME280;22294;52.044;4.582;2023-04-07T09:21:47;77147.34;;;-144.37;95.94
36258;BME280;22294;52.044;4.582;2023-04-07T09:24:19;77135.06;;;-144.37;95.70
36258;BME280;22294;52.044;4.582;2023-04-07T09:26:44;77133.03;;;-144.37;95.11
36258;BME280;22294;52.044;4.582;2023-04-07T09:29:10;77135.06;;;-144.37;95.53
36258;BME280;22294;52.044;4.582;2023-04-07T09:34:22;77130.97;;;-144.37;95.41
36258;BME280;22294;52.044;4.582;2023-04-07T09:36:47;77137.13;;;-144.37;94.74
36258;BME280;22294;52.044;4.582;2023-04-07T09:39:12;77139.16;;;-144.37;94.53
36258;BME280;22294;52.044;4.582;2023-04-07T09:41:37;77141.22;;;-144.37;94.00
36258;BME280;22294;52.044;4.582;2023-04-07T09:44:03;77128.94;;;-144.37;94.75
36258;BME280;22294;52.044;4.582;2023-04-07T09:46:28;77110.53;;;-144.37;94.63
36258;BME280;22294;52.044;4.582;2023-04-07T09:49:00;77110.53;;;-144.37;94.77
36258;BME280;22294;52.044;4.582;2023-04-07T09:51:29;77110.53;;;-144.37;94.83
36258;BME280;22294;52.044;4.582;2023-04-07T09:53:54;77108.47;;;-144.37;93.61
36258;BME280;22294;52.044;4.582;2023-04-07T09:56:19;77114.63;;;-144.37;92.54
36258;BME280;22294;52.044;4.582;2023-04-07T09:58:48;77106.44;;;-144.37;93.66
36258;BME280;22294;52.044;4.582;2023-04-07T10:01:15;77090.06;;;-144.37;92.89
36258;BME280;22294;52.044;4.582;2023-04-07T10:03:44;77092.13;;;-144.37;92.34
36258;BME280;22294;52.044;4.582;2023-04-07T10:06:12;77096.22;;;-144.37;92.02
36258;BME280;22294;52.044;4.582;2023-04-07T10:08:38;77094.16;;;-144.37;92.83
36258;BME280;22294;52.044;4.582;2023-04-07T10:11:04;77104.38;;;-144.37;92.12
36258;BME280;22294;52.044;4.582;2023-04-07T10:13:31;77102.34;;;-144.37;91.53
36258;BME280;22294;52.044;4.582;2023-04-07T10:15:56;77102.34;;;-144.37;91.13
36258;BME280;22294;52.044;4.582;2023-04-07T10:18:22;77083.94;;;-144.37;91.81
36258;BME280;22294;52.044;4.582;2023-04-07T10:20:50;77102.34;;;-144.37;92.06
36258;BME280;22294;52.044;4.582;2023-04-07T10:23:22;77114.63;;;-144.37;92.63
36258;BME280;22294;52.044;4.582;2023-04-07T10:25:50;77102.34;;;-144.37;92.90
36258;BME280;22294;52.044;4.582;2023-04-07T10:28:16;77092.13;;;-144.37;93.38
36258;BME280;22294;52.044;4.582;2023-04-07T10:30:42;77098.25;;;-144.37;94.02
36258;BME280;22294;52.044;4.582;2023-04-07T10:33:09;77092.13;;;-144.37;94.06
36258;BME280;22294;52.044;4.582;2023-04-07T10:38:18;77104.38;;;-144.37;94.47
36258;BME280;22294;52.044;4.582;2023-04-07T10:40:43;77120.75;;;-144.37;94.76
36258;BME280;22294;52.044;4.582;2023-04-07T10:43:09;77098.25;;;-144.37;94.83
36258;BME280;22294;52.044;4.582;2023-04-07T10:48:10;77120.75;;;-144.37;94.71
36258;BME280;22294;52.044;4.582;2023-04-07T10:50:36;77139.16;;;-144.37;95.77
36258;BME280;22294;52.044;4.582;2023-04-07T10:53:14;77149.41;;;-144.37;97.47
36258;BME280;22294;52.044;4.582;2023-04-07T10:58:18;77137.13;;;-144.37;98.35
36258;BME280;22294;52.044;4.582;2023-04-07T11:03:25;77141.22;;;-144.37;96.47
36258;BME280;22294;52.044;4.582;2023-04-07T11:05:50;77126.88;;;-144.37;96.88
36258;BME280;22294;52.044;4.582;2023-04-07T11:08:34;77118.72;;;-144.37;96.49
36258;BME280;22294;52.044;4.582;2023-04-07T11:11:00;77135.06;;;-144.37;96.46
36258;BME280;22294;52.044;4.582;2023-04-07T11:13:26;77137.13;;;-144.37;97.76
36258;BME280;22294;52.044;4.582;2023-04-07T11:15:53;77135.06;;;-144.37;97.15
36258;BME280;22294;52.044;4.582;2023-04-07T11:18:19;77124.84;;;-144.37;97.08
36258;BME280;22294;52.044;4.582;2023-04-07T11:20:54;77112.56;;;-144.37;95.79
36258;BME280;22294;52.044;4.582;2023-04-07T11:23:21;77110.53;;;-144.37;94.91
36258;BME280;22294;52.044;4.582;2023-04-07T11:25:48;77104.38;;;-144.37;93.97
36258;BME280;22294;52.044;4.582;2023-04-07T11:28:14;77112.56;;;-144.37;94.09
36258;BME280;22294;52.044;4.582;2023-04-07T11:30:46;77124.84;;;-144.37;94.82
36258;BME280;22294;52.044;4.582;2023-04-07T11:33:15;77128.94;;;-144.37;95.88
36258;BME280;22294;52.044;4.582;2023-04-07T11:35:47;77141.22;;;-144.37;95.63
36258;BME280;22294;52.044;4.582;2023-04-07T11:38:12;77151.44;;;-144.37;95.44
36258;BME280;22294;52.044;4.582;2023-04-07T11:40:38;77163.72;;;-144.37;95.38
36258;BME280;22294;52.044;4.582;2023-04-07T11:43:16;77171.91;;;-144.37;94.77
36258;BME280;22294;52.044;4.582;2023-04-07T11:45:42;77159.63;;;-144.37;94.91
36258;BME280;22294;52.044;4.582;2023-04-07T11:48:27;77157.56;;;-144.37;93.88
36258;BME280;22294;52.044;4.582;2023-04-07T11:50:53;77167.81;;;-144.37;93.09
36258;BME280;22294;52.044;4.582;2023-04-07T11:56:14;77155.53;;;-144.37;94.29
36258;BME280;22294;52.044;4.582;2023-04-07T11:58:53;77145.31;;;-144.37;93.58
36258;BME280;22294;52.044;4.582;2023-04-07T12:01:19;77155.53;;;-144.37;92.11
36258;BME280;22294;52.044;4.582;2023-04-07T12:03:55;77135.06;;;-144.37;92.86
36258;BME280;22294;52.044;4.582;2023-04-07T12:06:29;77133.03;;;-144.37;92.93
36258;BME280;22294;52.044;4.582;2023-04-07T12:08:57;77118.72;;;-144.37;92.99
36258;BME280;22294;52.044;4.582;2023-04-07T12:11:22;77116.66;;;-144.37;91.22
36258;BME280;22294;52.044;4.582;2023-04-07T12:13:50;77118.72;;;-144.37;90.48
36258;BME280;22294;52.044;4.582;2023-04-07T12:16:15;77114.63;;;-144.37;90.33
36258;BME280;22294;52.044;4.582;2023-04-07T12:18:41;77133.03;;;-144.37;89.80
36258;BME280;22294;52.044;4.582;2023-04-07T12:21:07;77130.97;;;-144.37;89.55
36258;BME280;22294;52.044;4.582;2023-04-07T12:23:32;77133.03;;;-144.37;89.47
36258;BME280;22294;52.044;4.582;2023-04-07T12:25:58;77133.03;;;-144.37;89.86
36258;BME280;22294;52.044;4.582;2023-04-07T12:28:23;77130.97;;;-144.37;89.72
36258;BME280;22294;52.044;4.582;2023-04-07T12:30:48;77133.03;;;-144.37;89.56
36258;BME280;22294;52.044;4.582;2023-04-07T12:33:13;77128.94;;;-144.37;89.00
36258;BME280;22294;52.044;4.582;2023-04-07T12:35:39;77141.22;;;-144.37;88.67
36258;BME280;22294;52.044;4.582;2023-04-07T12:38:04;77141.22;;;-144.37;89.02
36258;BME280;22294;52.044;4.582;2023-04-07T12:40:30;77143.25;;;-144.37;90.21
36258;BME280;22294;52.044;4.582;2023-04-07T12:42:56;77143.25;;;-144.37;90.90
36258;BME280;22294;52.044;4.582;2023-04-07T12:45:22;77149.41;;;-144.37;90.51
36258;BME280;22294;52.044;4.582;2023-04-07T12:47:47;77124.84;;;-144.37;90.86
36258;BME280;22294;52.044;4.582;2023-04-07T12:50:13;77130.97;;;-144.37;90.98
36258;BME280;22294;52.044;4.582;2023-04-07T12:52:38;77139.16;;;-144.37;90.42